Terminal Aerodrome Forecast
Issued by NWS Louisville, KY

Home | Current Version | Previous Version | Text Only | Print | Product List | Glossary On
Versions: 1 2 3 4 5 6 7 8 9 10 11 12 13 14 15 16 17
037
FTUS43 KLMK 241727
TAFSDF
TAF
KSDF 241727Z 2418/2524 20017G28KT P6SM SCT040 SCT150
     FM250000 24010G25KT P6SM -SHRA OVC035
      TEMPO 2501/2505 5SM -TSRA BR OVC030CB
     FM250500 27014G23KT P6SM OVC040=

USA.gov is the U.S. government's official web portal to all federal, state and local government web resources and services.